sensor_id;sensor_type;location;lat;lon;timestamp;temperature;humidity
81216;DHT22;70688;52.492;13.420;2023-08-01T00:02:06;20.20;67.10
81216;DHT22;70688;52.492;13.420;2023-08-01T00:04:31;19.90;68.30
81216;DHT22;70688;52.492;13.420;2023-08-01T00:06:57;19.90;68.40
81216;DHT22;70688;52.492;13.420;2023-08-01T00:09:23;19.90;68.40
81216;DHT22;70688;52.492;13.420;2023-08-01T00:11:48;19.70;69.80
81216;DHT22;70688;52.492;13.420;2023-08-01T00:14:14;19.70;69.70
81216;DHT22;70688;52.492;13.420;2023-08-01T00:16:39;19.60;70.30
81216;DHT22;70688;52.492;13.420;2023-08-01T00:19:05;19.70;69.70
81216;DHT22;70688;52.492;13.420;2023-08-01T00:21:31;19.60;70.60
81216;DHT22;70688;52.492;13.420;2023-08-01T00:23:57;19.70;70.60
81216;DHT22;70688;52.492;13.420;2023-08-01T00:26:23;19.70;70.80
81216;DHT22;70688;52.492;13.420;2023-08-01T00:28:49;19.60;71.10
81216;DHT22;70688;52.492;13.420;2023-08-01T00:31:14;19.40;72.20
81216;DHT22;70688;52.492;13.420;2023-08-01T00:33:40;19.40;72.90
81216;DHT22;70688;52.492;13.420;2023-08-01T00:36:05;19.30;74.10
81216;DHT22;70688;52.492;13.420;2023-08-01T00:38:37;19.40;73.50
81216;DHT22;70688;52.492;13.420;2023-08-01T00:41:03;19.30;73.80
81216;DHT22;70688;52.492;13.420;2023-08-01T00:43:28;19.10;75.40
81216;DHT22;70688;52.492;13.420;2023-08-01T00:45:58;19.20;74.50
81216;DHT22;70688;52.492;13.420;2023-08-01T00:48:25;19.10;75.10
81216;DHT22;70688;52.492;13.420;2023-08-01T00:50:51;19.20;74.50
81216;DHT22;70688;52.492;13.420;2023-08-01T00:53:18;19.10;75.10
81216;DHT22;70688;52.492;13.420;2023-08-01T00:55:44;19.00;75.30
81216;DHT22;70688;52.492;13.420;2023-08-01T00:58:10;19.00;75.60
81216;DHT22;70688;52.492;13.420;2023-08-01T01:00:35;18.90;76.10
81216;DHT22;70688;52.492;13.420;2023-08-01T01:03:01;18.90;76.60
81216;DHT22;70688;52.492;13.420;2023-08-01T01:05:31;18.90;76.10
81216;DHT22;70688;52.492;13.420;2023-08-01T01:08:00;19.10;75.50
81216;DHT22;70688;52.492;13.420;2023-08-01T01:10:25;19.00;75.70
81216;DHT22;70688;52.492;13.420;2023-08-01T01:12:51;19.10;75.60
81216;DHT22;70688;52.492;13.420;2023-08-01T01:15:17;18.90;76.20
81216;DHT22;70688;52.492;13.420;2023-08-01T01:17:42;18.90;76.10
81216;DHT22;70688;52.492;13.420;2023-08-01T01:20:08;18.90;76.20
81216;DHT22;70688;52.492;13.420;2023-08-01T01:22:34;18.90;76.60
81216;DHT22;70688;52.492;13.420;2023-08-01T01:25:01;19.00;75.80
81216;DHT22;70688;52.492;13.420;2023-08-01T01:27:28;19.00;75.90
81216;DHT22;70688;52.492;13.420;2023-08-01T01:29:55;19.00;76.10
81216;DHT22;70688;52.492;13.420;2023-08-01T01:32:21;18.80;77.50
81216;DHT22;70688;52.492;13.420;2023-08-01T01:34:47;19.00;76.20
81216;DHT22;70688;52.492;13.420;2023-08-01T01:37:13;19.00;76.00
81216;DHT22;70688;52.492;13.420;2023-08-01T01:39:38;18.70;77.40
81216;DHT22;70688;52.492;13.420;2023-08-01T01:42:04;18.70;78.30
81216;DHT22;70688;52.492;13.420;2023-08-01T01:44:30;18.50;79.10
81216;DHT22;70688;52.492;13.420;2023-08-01T01:46:56;18.70;78.40
81216;DHT22;70688;52.492;13.420;2023-08-01T01:49:22;18.70;78.30
81216;DHT22;70688;52.492;13.420;2023-08-01T01:51:47;18.80;77.60
81216;DHT22;70688;52.492;13.420;2023-08-01T01:54:13;18.70;77.30
81216;DHT22;70688;52.492;13.420;2023-08-01T01:56:39;18.60;78.30
81216;DHT22;70688;52.492;13.420;2023-08-01T01:59:04;18.80;78.20
81216;DHT22;70688;52.492;13.420;2023-08-01T02:01:30;18.80;78.00
81216;DHT22;70688;52.492;13.420;2023-08-01T02:03:55;18.80;78.00
81216;DHT22;70688;52.492;13.420;2023-08-01T02:06:21;18.70;77.90
81216;DHT22;70688;52.492;13.420;2023-08-01T02:08:46;18.70;78.20
81216;DHT22;70688;52.492;13.420;2023-08-01T02:11:12;18.60;78.50
81216;DHT22;70688;52.492;13.420;2023-08-01T02:13:37;18.60;78.60
81216;DHT22;70688;52.492;13.420;2023-08-01T02:16:03;18.60;79.40
81216;DHT22;70688;52.492;13.420;2023-08-01T02:18:29;18.60;79.10
81216;DHT22;70688;52.492;13.420;2023-08-01T02:20:54;18.70;79.10
81216;DHT22;70688;52.492;13.420;2023-08-01T02:23:20;18.70;79.10
81216;DHT22;70688;52.492;13.420;2023-08-01T02:25:45;18.70;78.10
81216;DHT22;70688;52.492;13.420;2023-08-01T02:28:11;18.80;77.90
81216;DHT22;70688;52.492;13.420;2023-08-01T02:30:38;18.70;78.10
81216;DHT22;70688;52.492;13.420;2023-08-01T02:33:04;18.70;78.60
81216;DHT22;70688;52.492;13.420;2023-08-01T02:35:30;18.70;78.60
81216;DHT22;70688;52.492;13.420;2023-08-01T02:37:56;18.70;78.30
81216;DHT22;70688;52.492;13.420;2023-08-01T02:40:22;18.60;78.90
81216;DHT22;70688;52.492;13.420;2023-08-01T02:42:47;18.80;77.90
81216;DHT22;70688;52.492;13.420;2023-08-01T02:45:13;18.90;77.70
81216;DHT22;70688;52.492;13.420;2023-08-01T02:47:39;18.80;78.20
81216;DHT22;70688;52.492;13.420;2023-08-01T02:50:05;18.60;78.60
81216;DHT22;70688;52.492;13.420;2023-08-01T02:52:31;18.60;78.80
81216;DHT22;70688;52.492;13.420;2023-08-01T02:54:56;18.60;79.30
81216;DHT22;70688;52.492;13.420;2023-08-01T02:57:23;18.60;78.80
81216;DHT22;70688;52.492;13.420;2023-08-01T02:59:49;18.60;78.70
81216;DHT22;70688;52.492;13.420;2023-08-01T03:02:15;18.60;79.10
81216;DHT22;70688;52.492;13.420;2023-08-01T03:04:40;18.60;78.80
81216;DHT22;70688;52.492;13.420;2023-08-01T03:07:06;18.60;79.00
81216;DHT22;70688;52.492;13.420;2023-08-01T03:09:34;18.70;78.30
81216;DHT22;70688;52.492;13.420;2023-08-01T03:12:00;18.60;78.60
81216;DHT22;70688;52.492;13.420;2023-08-01T03:14:26;18.60;78.40
81216;DHT22;70688;52.492;13.420;2023-08-01T03:16:51;18.70;78.20
81216;DHT22;70688;52.492;13.420;2023-08-01T03:19:17;18.70;78.20
81216;DHT22;70688;52.492;13.420;2023-08-01T03:21:42;18.70;78.40
81216;DHT22;70688;52.492;13.420;2023-08-01T03:24:08;18.60;78.40
81216;DHT22;70688;52.492;13.420;2023-08-01T03:26:37;18.70;77.90
81216;DHT22;70688;52.492;13.420;2023-08-01T03:29:02;18.80;77.70
81216;DHT22;70688;52.492;13.420;2023-08-01T03:31:29;18.90;77.00
81216;DHT22;70688;52.492;13.420;2023-08-01T03:33:54;18.80;77.50
81216;DHT22;70688;52.492;13.420;2023-08-01T03:36:20;18.80;77.50
81216;DHT22;70688;52.492;13.420;2023-08-01T03:38:46;18.80;77.60
81216;DHT22;70688;52.492;13.420;2023-08-01T03:41:12;18.70;77.70
81216;DHT22;70688;52.492;13.420;2023-08-01T03:43:37;18.80;77.20
81216;DHT22;70688;52.492;13.420;2023-08-01T03:46:03;18.80;77.10
81216;DHT22;70688;52.492;13.420;2023-08-01T03:48:29;18.80;77.40
81216;DHT22;70688;52.492;13.420;2023-08-01T03:50:54;18.80;77.10
81216;DHT22;70688;52.492;13.420;2023-08-01T03:53:20;18.70;77.90
81216;DHT22;70688;52.492;13.420;2023-08-01T03:55:46;18.50;78.90
81216;DHT22;70688;52.492;13.420;2023-08-01T03:58:12;18.60;78.80
81216;DHT22;70688;52.492;13.420;2023-08-01T04:00:38;18.50;78.80
81216;DHT22;70688;52.492;13.420;2023-08-01T04:03:03;18.60;78.40
81216;DHT22;70688;52.492;13.420;2023-08-01T04:05:29;18.80;77.20
81216;DHT22;70688;52.492;13.420;2023-08-01T04:07:54;18.70;77.40
81216;DHT22;70688;52.492;13.420;2023-08-01T04:10:23;18.80;77.30
81216;DHT22;70688;52.492;13.420;2023-08-01T04:12:49;18.70;78.00
81216;DHT22;70688;52.492;13.420;2023-08-01T04:15:14;18.60;78.40
81216;DHT22;70688;52.492;13.420;2023-08-01T04:17:40;18.50;79.10
81216;DHT22;70688;52.492;13.420;2023-08-01T04:20:06;18.70;77.90
81216;DHT22;70688;52.492;13.420;2023-08-01T04:22:32;18.90;77.00
81216;DHT22;70688;52.492;13.420;2023-08-01T04:24:57;18.70;77.90
81216;DHT22;70688;52.492;13.420;2023-08-01T04:27:23;18.80;77.20
81216;DHT22;70688;52.492;13.420;2023-08-01T04:29:48;18.80;77.70
81216;DHT22;70688;52.492;13.420;2023-08-01T04:32:14;18.80;77.50
81216;DHT22;70688;52.492;13.420;2023-08-01T04:34:41;19.00;76.50
81216;DHT22;70688;52.492;13.420;2023-08-01T04:37:07;19.10;76.30
81216;DHT22;70688;52.492;13.420;2023-08-01T04:39:33;19.10;75.90
81216;DHT22;70688;52.492;13.420;2023-08-01T04:41:58;19.00;76.70
81216;DHT22;70688;52.492;13.420;2023-08-01T04:44:24;18.90;76.50
81216;DHT22;70688;52.492;13.420;2023-08-01T04:46:50;19.00;75.80
81216;DHT22;70688;52.492;13.420;2023-08-01T04:49:15;19.10;75.40
81216;DHT22;70688;52.492;13.420;2023-08-01T04:51:41;19.10;75.30
81216;DHT22;70688;52.492;13.420;2023-08-01T04:54:06;19.20;75.40
81216;DHT22;70688;52.492;13.420;2023-08-01T04:56:32;19.10;75.80
81216;DHT22;70688;52.492;13.420;2023-08-01T04:58:58;19.20;75.30
81216;DHT22;70688;52.492;13.420;2023-08-01T05:01:23;19.40;74.80
81216;DHT22;70688;52.492;13.420;2023-08-01T05:03:49;19.30;75.00
81216;DHT22;70688;52.492;13.420;2023-08-01T05:06:14;19.30;75.00
81216;DHT22;70688;52.492;13.420;2023-08-01T05:08:40;19.30;75.30
81216;DHT22;70688;52.492;13.420;2023-08-01T05:11:05;19.30;75.60
81216;DHT22;70688;52.492;13.420;2023-08-01T05:13:31;19.30;75.80
81216;DHT22;70688;52.492;13.420;2023-08-01T05:15:57;19.40;74.90
81216;DHT22;70688;52.492;13.420;2023-08-01T05:18:22;19.40;75.00
81216;DHT22;70688;52.492;13.420;2023-08-01T05:20:48;19.40;74.90
81216;DHT22;70688;52.492;13.420;2023-08-01T05:23:13;19.40;74.90
81216;DHT22;70688;52.492;13.420;2023-08-01T05:25:39;19.20;75.40
81216;DHT22;70688;52.492;13.420;2023-08-01T05:28:05;19.10;75.60
81216;DHT22;70688;52.492;13.420;2023-08-01T05:30:30;19.10;76.00
81216;DHT22;70688;52.492;13.420;2023-08-01T05:32:56;19.20;76.00
81216;DHT22;70688;52.492;13.420;2023-08-01T05:35:21;19.20;75.80
81216;DHT22;70688;52.492;13.420;2023-08-01T05:37:47;19.40;75.40
81216;DHT22;70688;52.492;13.420;2023-08-01T05:40:13;19.40;75.20
81216;DHT22;70688;52.492;13.420;2023-08-01T05:42:38;19.60;74.20
81216;DHT22;70688;52.492;13.420;2023-08-01T05:45:04;19.60;74.20
81216;DHT22;70688;52.492;13.420;2023-08-01T05:47:30;19.60;74.50
81216;DHT22;70688;52.492;13.420;2023-08-01T05:49:56;19.40;74.50
81216;DHT22;70688;52.492;13.420;2023-08-01T05:52:22;19.60;73.60
81216;DHT22;70688;52.492;13.420;2023-08-01T05:54:48;19.70;73.60
81216;DHT22;70688;52.492;13.420;2023-08-01T05:57:14;19.60;73.60
81216;DHT22;70688;52.492;13.420;2023-08-01T05:59:39;19.50;74.00
81216;DHT22;70688;52.492;13.420;2023-08-01T06:02:05;19.30;75.20
81216;DHT22;70688;52.492;13.420;2023-08-01T06:04:31;19.30;75.70
81216;DHT22;70688;52.492;13.420;2023-08-01T06:06:57;19.30;76.90
81216;DHT22;70688;52.492;13.420;2023-08-01T06:09:24;19.50;74.60
81216;DHT22;70688;52.492;13.420;2023-08-01T06:11:50;19.70;73.70
81216;DHT22;70688;52.492;13.420;2023-08-01T06:14:16;19.70;73.60
81216;DHT22;70688;52.492;13.420;2023-08-01T06:16:42;19.70;73.70
81216;DHT22;70688;52.492;13.420;2023-08-01T06:19:08;19.60;74.30
81216;DHT22;70688;52.492;13.420;2023-08-01T06:21:33;19.60;74.00
81216;DHT22;70688;52.492;13.420;2023-08-01T06:23:59;19.70;73.70
81216;DHT22;70688;52.492;13.420;2023-08-01T06:26:24;19.70;74.20
81216;DHT22;70688;52.492;13.420;2023-08-01T06:28:50;19.70;73.70
81216;DHT22;70688;52.492;13.420;2023-08-01T06:31:19;19.60;74.30
81216;DHT22;70688;52.492;13.420;2023-08-01T06:33:45;19.70;73.70
81216;DHT22;70688;52.492;13.420;2023-08-01T06:36:10;19.90;72.90
81216;DHT22;70688;52.492;13.420;2023-08-01T06:38:36;19.80;73.40
81216;DHT22;70688;52.492;13.420;2023-08-01T06:41:02;19.80;73.70
81216;DHT22;70688;52.492;13.420;2023-08-01T06:43:28;19.90;73.00
81216;DHT22;70688;52.492;13.420;2023-08-01T06:45:54;19.60;74.20
81216;DHT22;70688;52.492;13.420;2023-08-01T06:48:19;19.50;74.90
81216;DHT22;70688;52.492;13.420;2023-08-01T06:50:45;19.70;74.30
81216;DHT22;70688;52.492;13.420;2023-08-01T06:53:10;19.90;72.90
81216;DHT22;70688;52.492;13.420;2023-08-01T06:55:36;20.00;72.30
81216;DHT22;70688;52.492;13.420;2023-08-01T06:58:02;19.90;72.70
81216;DHT22;70688;52.492;13.420;2023-08-01T07:00:27;19.90;72.70
81216;DHT22;70688;52.492;13.420;2023-08-01T07:02:53;19.90;72.50
81216;DHT22;70688;52.492;13.420;2023-08-01T07:05:19;19.90;72.80
81216;DHT22;70688;52.492;13.420;2023-08-01T07:07:45;19.90;72.90
81216;DHT22;70688;52.492;13.420;2023-08-01T07:10:11;19.80;73.30
81216;DHT22;70688;52.492;13.420;2023-08-01T07:12:36;19.80;73.20
81216;DHT22;70688;52.492;13.420;2023-08-01T07:15:02;19.90;73.40
81216;DHT22;70688;52.492;13.420;2023-08-01T07:17:28;20.10;72.20
81216;DHT22;70688;52.492;13.420;2023-08-01T07:19:53;19.90;72.90
81216;DHT22;70688;52.492;13.420;2023-08-01T07:22:20;20.10;72.30
81216;DHT22;70688;52.492;13.420;2023-08-01T07:24:45;20.30;71.70
81216;DHT22;70688;52.492;13.420;2023-08-01T07:27:11;20.30;71.70
81216;DHT22;70688;52.492;13.420;2023-08-01T07:29:37;20.40;70.90
81216;DHT22;70688;52.492;13.420;2023-08-01T07:32:03;20.60;70.00
81216;DHT22;70688;52.492;13.420;2023-08-01T07:34:29;20.70;69.90
81216;DHT22;70688;52.492;13.420;2023-08-01T07:36:55;20.80;69.30
81216;DHT22;70688;52.492;13.420;2023-08-01T07:39:20;21.20;67.80
81216;DHT22;70688;52.492;13.420;2023-08-01T07:41:46;21.20;67.80
81216;DHT22;70688;52.492;13.420;2023-08-01T07:44:12;21.40;66.80
81216;DHT22;70688;52.492;13.420;2023-08-01T07:46:37;21.50;66.20
81216;DHT22;70688;52.492;13.420;2023-08-01T07:49:03;21.70;65.50
81216;DHT22;70688;52.492;13.420;2023-08-01T07:51:28;21.80;65.00
81216;DHT22;70688;52.492;13.420;2023-08-01T07:53:55;21.90;65.00
81216;DHT22;70688;52.492;13.420;2023-08-01T07:56:20;22.00;65.00
81216;DHT22;70688;52.492;13.420;2023-08-01T07:58:46;22.60;63.10
81216;DHT22;70688;52.492;13.420;2023-08-01T08:01:12;23.20;60.60
81216;DHT22;70688;52.492;13.420;2023-08-01T08:03:38;23.10;59.90
81216;DHT22;70688;52.492;13.420;2023-08-01T08:06:03;23.10;59.80
81216;DHT22;70688;52.492;13.420;2023-08-01T08:08:30;23.20;59.80
81216;DHT22;70688;52.492;13.420;2023-08-01T08:10:59;23.20;59.40
81216;DHT22;70688;52.492;13.420;2023-08-01T08:13:24;23.20;59.60
81216;DHT22;70688;52.492;13.420;2023-08-01T08:15:51;23.00;60.10
81216;DHT22;70688;52.492;13.420;2023-08-01T08:18:16;23.20;59.40
81216;DHT22;70688;52.492;13.420;2023-08-01T08:20:45;23.60;58.10
81216;DHT22;70688;52.492;13.420;2023-08-01T08:23:11;23.80;57.50
81216;DHT22;70688;52.492;13.420;2023-08-01T08:25:39;23.90;56.50
81216;DHT22;70688;52.492;13.420;2023-08-01T08:28:05;24.40;55.30
81216;DHT22;70688;52.492;13.420;2023-08-01T08:30:31;25.10;53.40
81216;DHT22;70688;52.492;13.420;2023-08-01T08:32:57;25.20;52.80
81216;DHT22;70688;52.492;13.420;2023-08-01T08:35:23;24.80;54.40
81216;DHT22;70688;52.492;13.420;2023-08-01T08:37:49;24.40;53.90
81216;DHT22;70688;52.492;13.420;2023-08-01T08:40:15;24.20;55.30
81216;DHT22;70688;52.492;13.420;2023-08-01T08:42:41;24.50;54.80
81216;DHT22;70688;52.492;13.420;2023-08-01T08:45:08;24.90;52.70
81216;DHT22;70688;52.492;13.420;2023-08-01T08:47:36;24.80;52.80
81216;DHT22;70688;52.492;13.420;2023-08-01T08:50:05;24.60;53.40
81216;DHT22;70688;52.492;13.420;2023-08-01T08:52:30;24.30;54.40
81216;DHT22;70688;52.492;13.420;2023-08-01T08:54:56;24.20;55.10
81216;DHT22;70688;52.492;13.420;2023-08-01T08:57:22;23.60;56.80
81216;DHT22;70688;52.492;13.420;2023-08-01T08:59:49;23.50;58.30
81216;DHT22;70688;52.492;13.420;2023-08-01T09:02:15;23.30;58.40
81216;DHT22;70688;52.492;13.420;2023-08-01T09:04:42;23.30;58.40
81216;DHT22;70688;52.492;13.420;2023-08-01T09:07:09;23.60;57.80
81216;DHT22;70688;52.492;13.420;2023-08-01T09:09:37;23.90;57.00
81216;DHT22;70688;52.492;13.420;2023-08-01T09:12:03;23.70;56.50
81216;DHT22;70688;52.492;13.420;2023-08-01T09:14:29;23.80;56.30
81216;DHT22;70688;52.492;13.420;2023-08-01T09:16:55;23.80;56.40
81216;DHT22;70688;52.492;13.420;2023-08-01T09:19:23;24.00;54.50
81216;DHT22;70688;52.492;13.420;2023-08-01T09:21:50;24.20;54.00
81216;DHT22;70688;52.492;13.420;2023-08-01T09:24:20;24.70;52.50
81216;DHT22;70688;52.492;13.420;2023-08-01T09:26:48;24.80;52.30
81216;DHT22;70688;52.492;13.420;2023-08-01T09:29:16;25.30;49.90
81216;DHT22;70688;52.492;13.420;2023-08-01T09:31:42;25.40;49.80
81216;DHT22;70688;52.492;13.420;2023-08-01T09:34:23;25.10;49.50
81216;DHT22;70688;52.492;13.420;2023-08-01T09:36:49;25.10;49.10
81216;DHT22;70688;52.492;13.420;2023-08-01T09:39:17;24.90;50.20
81216;DHT22;70688;52.492;13.420;2023-08-01T09:41:43;24.60;49.30
81216;DHT22;70688;52.492;13.420;2023-08-01T09:44:16;24.10;50.90
81216;DHT22;70688;52.492;13.420;2023-08-01T09:46:42;23.80;53.10
81216;DHT22;70688;52.492;13.420;2023-08-01T09:49:12;23.50;54.40
81216;DHT22;70688;52.492;13.420;2023-08-01T09:51:49;23.10;55.70
81216;DHT22;70688;52.492;13.420;2023-08-01T09:54:16;22.90;55.80
81216;DHT22;70688;52.492;13.420;2023-08-01T09:56:45;23.00;55.30
81216;DHT22;70688;52.492;13.420;2023-08-01T09:59:11;23.10;54.80
81216;DHT22;70688;52.492;13.420;2023-08-01T10:01:38;23.20;55.20
81216;DHT22;70688;52.492;13.420;2023-08-01T10:04:04;23.70;53.60
81216;DHT22;70688;52.492;13.420;2023-08-01T10:06:33;23.80;53.40
81216;DHT22;70688;52.492;13.420;2023-08-01T10:08:59;24.10;52.50
81216;DHT22;70688;52.492;13.420;2023-08-01T10:11:26;24.20;52.20
81216;DHT22;70688;52.492;13.420;2023-08-01T10:13:53;23.90;52.70
81216;DHT22;70688;52.492;13.420;2023-08-01T10:16:19;24.00;52.20
81216;DHT22;70688;52.492;13.420;2023-08-01T10:18:45;23.50;53.50
81216;DHT22;70688;52.492;13.420;2023-08-01T10:21:13;23.50;53.60
81216;DHT22;70688;52.492;13.420;2023-08-01T10:23:39;23.50;53.80
81216;DHT22;70688;52.492;13.420;2023-08-01T10:26:07;23.30;54.20
81216;DHT22;70688;52.492;13.420;2023-08-01T10:28:36;22.80;55.80
81216;DHT22;70688;52.492;13.420;2023-08-01T10:31:09;22.80;55.80
81216;DHT22;70688;52.492;13.420;2023-08-01T10:33:36;22.70;56.40
81216;DHT22;70688;52.492;13.420;2023-08-01T10:38:48;23.10;55.60
81216;DHT22;70688;52.492;13.420;2023-08-01T10:41:33;23.00;55.80
81216;DHT22;70688;52.492;13.420;2023-08-01T10:44:10;22.80;56.50
81216;DHT22;70688;52.492;13.420;2023-08-01T10:46:49;22.70;57.10
81216;DHT22;70688;52.492;13.420;2023-08-01T10:49:16;22.60;57.10
81216;DHT22;70688;52.492;13.420;2023-08-01T10:51:43;22.20;61.30
81216;DHT22;70688;52.492;13.420;2023-08-01T10:54:23;21.50;64.80
81216;DHT22;70688;52.492;13.420;2023-08-01T10:56:55;21.20;67.10
81216;DHT22;70688;52.492;13.420;2023-08-01T10:59:21;21.10;67.20
81216;DHT22;70688;52.492;13.420;2023-08-01T11:01:50;21.20;67.40
81216;DHT22;70688;52.492;13.420;2023-08-01T11:04:18;21.20;67.60
81216;DHT22;70688;52.492;13.420;2023-08-01T11:06:47;21.00;68.20
81216;DHT22;70688;52.492;13.420;2023-08-01T11:09:31;21.00;68.30
81216;DHT22;70688;52.492;13.420;2023-08-01T11:11:58;20.90;70.00
81216;DHT22;70688;52.492;13.420;2023-08-01T11:14:28;20.90;70.00
81216;DHT22;70688;52.492;13.420;2023-08-01T11:16:55;20.90;69.20
81216;DHT22;70688;52.492;13.420;2023-08-01T11:19:23;20.80;69.30
81216;DHT22;70688;52.492;13.420;2023-08-01T11:21:50;20.90;69.50
81216;DHT22;70688;52.492;13.420;2023-08-01T11:24:18;20.90;69.60
81216;DHT22;70688;52.492;13.420;2023-08-01T11:26:45;20.70;70.30
81216;DHT22;70688;52.492;13.420;2023-08-01T11:29:11;20.90;69.40
81216;DHT22;70688;52.492;13.420;2023-08-01T11:31:38;20.90;68.60
81216;DHT22;70688;52.492;13.420;2023-08-01T11:34:04;21.00;69.00
81216;DHT22;70688;52.492;13.420;2023-08-01T11:36:30;21.10;67.60
81216;DHT22;70688;52.492;13.420;2023-08-01T11:38:58;21.40;67.10
81216;DHT22;70688;52.492;13.420;2023-08-01T11:41:28;21.40;66.00
81216;DHT22;70688;52.492;13.420;2023-08-01T11:43:54;21.50;65.50
81216;DHT22;70688;52.492;13.420;2023-08-01T11:46:22;21.80;62.80
81216;DHT22;70688;52.492;13.420;2023-08-01T11:48:48;21.80;64.00
81216;DHT22;70688;52.492;13.420;2023-08-01T11:51:17;22.00;63.40
81216;DHT22;70688;52.492;13.420;2023-08-01T11:53:42;22.00;62.40
81216;DHT22;70688;52.492;13.420;2023-08-01T11:56:08;22.10;62.10
81216;DHT22;70688;52.492;13.420;2023-08-01T11:58:44;22.10;61.80
81216;DHT22;70688;52.492;13.420;2023-08-01T12:01:11;22.10;61.80
81216;DHT22;70688;52.492;13.420;2023-08-01T12:03:54;21.70;63.60
81216;DHT22;70688;52.492;13.420;2023-08-01T12:06:22;21.80;62.60
81216;DHT22;70688;52.492;13.420;2023-08-01T12:08:48;21.50;64.00
81216;DHT22;70688;52.492;13.420;2023-08-01T12:13:47;21.90;62.40
81216;DHT22;70688;52.492;13.420;2023-08-01T12:16:13;22.20;60.90
81216;DHT22;70688;52.492;13.420;2023-08-01T12:18:42;22.50;60.00
81216;DHT22;70688;52.492;13.420;2023-08-01T12:21:10;22.70;59.40
81216;DHT22;70688;52.492;13.420;2023-08-01T12:23:36;22.60;59.20
81216;DHT22;70688;52.492;13.420;2023-08-01T12:26:01;22.70;60.20
81216;DHT22;70688;52.492;13.420;2023-08-01T12:28:27;22.60;60.10
81216;DHT22;70688;52.492;13.420;2023-08-01T12:30:53;22.70;60.00
81216;DHT22;70688;52.492;13.420;2023-08-01T12:33:18;22.70;57.60
81216;DHT22;70688;52.492;13.420;2023-08-01T12:35:44;22.60;57.10
81216;DHT22;70688;52.492;13.420;2023-08-01T12:38:10;22.60;57.50
81216;DHT22;70688;52.492;13.420;2023-08-01T12:40:35;22.80;57.70
81216;DHT22;70688;52.492;13.420;2023-08-01T12:43:01;23.00;55.50
81216;DHT22;70688;52.492;13.420;2023-08-01T12:45:26;23.50;55.00
81216;DHT22;70688;52.492;13.420;2023-08-01T12:47:52;23.60;53.90
81216;DHT22;70688;52.492;13.420;2023-08-01T12:50:17;23.40;54.70
81216;DHT22;70688;52.492;13.420;2023-08-01T12:52:43;23.50;53.90
81216;DHT22;70688;52.492;13.420;2023-08-01T12:55:09;23.50;53.90
81216;DHT22;70688;52.492;13.420;2023-08-01T12:57:34;23.30;54.10
81216;DHT22;70688;52.492;13.420;2023-08-01T13:00:00;23.10;54.30
81216;DHT22;70688;52.492;13.420;2023-08-01T13:02:26;23.10;54.20
81216;DHT22;70688;52.492;13.420;2023-08-01T13:04:52;23.20;54.60
81216;DHT22;70688;52.492;13.420;2023-08-01T13:07:18;22.90;56.30
81216;DHT22;70688;52.492;13.420;2023-08-01T13:09:43;22.80;56.40
81216;DHT22;70688;52.492;13.420;2023-08-01T13:12:09;22.90;55.70
81216;DHT22;70688;52.492;13.420;2023-08-01T13:14:35;23.10;55.10
81216;DHT22;70688;52.492;13.420;2023-08-01T13:17:00;23.00;55.20
81216;DHT22;70688;52.492;13.420;2023-08-01T13:19:26;23.10;54.40
81216;DHT22;70688;52.492;13.420;2023-08-01T13:21:51;22.90;56.40
81216;DHT22;70688;52.492;13.420;2023-08-01T13:24:17;23.20;54.40
81216;DHT22;70688;52.492;13.420;2023-08-01T13:26:43;23.30;54.20
81216;DHT22;70688;52.492;13.420;2023-08-01T13:29:08;23.30;54.10
81216;DHT22;70688;52.492;13.420;2023-08-01T13:31:34;23.30;54.20
81216;DHT22;70688;52.492;13.420;2023-08-01T13:33:59;23.50;54.30
81216;DHT22;70688;52.492;13.420;2023-08-01T13:36:25;23.60;53.00
81216;DHT22;70688;52.492;13.420;2023-08-01T13:38:51;23.40;53.40
81216;DHT22;70688;52.492;13.420;2023-08-01T13:41:17;23.60;52.60
81216;DHT22;70688;52.492;13.420;2023-08-01T13:43:42;23.30;53.10
81216;DHT22;70688;52.492;13.420;2023-08-01T13:46:18;23.40;53.70
81216;DHT22;70688;52.492;13.420;2023-08-01T13:48:46;23.40;53.70
81216;DHT22;70688;52.492;13.420;2023-08-01T13:51:12;23.30;53.90
81216;DHT22;70688;52.492;13.420;2023-08-01T13:53:38;23.30;53.80
81216;DHT22;70688;52.492;13.420;2023-08-01T13:56:15;23.40;53.50
81216;DHT22;70688;52.492;13.420;2023-08-01T13:58:41;23.60;52.60
81216;DHT22;70688;52.492;13.420;2023-08-01T14:01:08;23.70;51.80
81216;DHT22;70688;52.492;13.420;2023-08-01T14:03:34;23.60;50.90
81216;DHT22;70688;52.492;13.420;2023-08-01T14:06:09;23.60;51.50
81216;DHT22;70688;52.492;13.420;2023-08-01T14:08:35;23.90;50.90
81216;DHT22;70688;52.492;13.420;2023-08-01T14:11:02;23.90;50.00
81216;DHT22;70688;52.492;13.420;2023-08-01T14:13:28;23.80;51.00
81216;DHT22;70688;52.492;13.420;2023-08-01T14:15:54;23.90;50.40
81216;DHT22;70688;52.492;13.420;2023-08-01T14:18:19;23.90;50.60
81216;DHT22;70688;52.492;13.420;2023-08-01T14:20:45;23.70;50.20
81216;DHT22;70688;52.492;13.420;2023-08-01T14:23:11;23.60;50.30
81216;DHT22;70688;52.492;13.420;2023-08-01T14:25:36;23.50;51.00
81216;DHT22;70688;52.492;13.420;2023-08-01T14:28:02;23.50;50.50
81216;DHT22;70688;52.492;13.420;2023-08-01T14:30:27;23.40;50.70
81216;DHT22;70688;52.492;13.420;2023-08-01T14:32:59;23.40;50.60
81216;DHT22;70688;52.492;13.420;2023-08-01T14:35:26;23.50;50.10
81216;DHT22;70688;52.492;13.420;2023-08-01T14:37:52;23.60;50.50
81216;DHT22;70688;52.492;13.420;2023-08-01T14:40:18;23.90;48.20
81216;DHT22;70688;52.492;13.420;2023-08-01T14:42:43;23.90;48.10
81216;DHT22;70688;52.492;13.420;2023-08-01T14:45:09;23.80;49.20
81216;DHT22;70688;52.492;13.420;2023-08-01T14:47:35;23.70;48.20
81216;DHT22;70688;52.492;13.420;2023-08-01T14:50:03;23.60;49.20
81216;DHT22;70688;52.492;13.420;2023-08-01T14:52:30;23.60;48.40
81216;DHT22;70688;52.492;13.420;2023-08-01T14:54:56;23.40;49.10
81216;DHT22;70688;52.492;13.420;2023-08-01T14:57:22;23.30;49.60
81216;DHT22;70688;52.492;13.420;2023-08-01T14:59:47;23.30;49.80
81216;DHT22;70688;52.492;13.420;2023-08-01T15:02:14;23.30;48.90
81216;DHT22;70688;52.492;13.420;2023-08-01T15:04:40;23.30;49.40
81216;DHT22;70688;52.492;13.420;2023-08-01T15:07:05;23.20;49.40
81216;DHT22;70688;52.492;13.420;2023-08-01T15:09:31;23.40;47.60
81216;DHT22;70688;52.492;13.420;2023-08-01T15:11:57;23.20;47.80
81216;DHT22;70688;52.492;13.420;2023-08-01T15:14:23;23.00;48.80
81216;DHT22;70688;52.492;13.420;2023-08-01T15:16:51;23.00;49.80